sensor_id;sensor_type;location;lat;lon;timestamp;temperature;humidity
32877;DHT22;19226;51.600;8.034;2023-02-03T00:00:00;8.50;99.90
32877;DHT22;19226;51.600;8.034;2023-02-03T00:02:44;8.50;99.90
32877;DHT22;19226;51.600;8.034;2023-02-03T00:05:30;8.50;99.90
32877;DHT22;19226;51.600;8.034;2023-02-03T00:08:16;8.60;99.90
32877;DHT22;19226;51.600;8.034;2023-02-03T00:11:02;8.50;99.90
32877;DHT22;19226;51.600;8.034;2023-02-03T00:13:46;8.50;99.90
32877;DHT22;19226;51.600;8.034;2023-02-03T00:16:31;8.50;99.90
32877;DHT22;19226;51.600;8.034;2023-02-03T00:19:15;8.60;99.90
32877;DHT22;19226;51.600;8.034;2023-02-03T00:22:00;8.60;99.90
32877;DHT22;19226;51.600;8.034;2023-02-03T00:24:44;8.60;99.90
32877;DHT22;19226;51.600;8.034;2023-02-03T00:27:29;8.60;99.90
32877;DHT22;19226;51.600;8.034;2023-02-03T00:30:13;8.60;99.90
32877;DHT22;19226;51.600;8.034;2023-02-03T00:32:58;8.60;99.90
32877;DHT22;19226;51.600;8.034;2023-02-03T00:35:43;8.60;99.90
32877;DHT22;19226;51.600;8.034;2023-02-03T00:38:27;8.60;99.90
32877;DHT22;19226;51.600;8.034;2023-02-03T00:41:11;8.60;99.90
32877;DHT22;19226;51.600;8.034;2023-02-03T00:43:56;8.60;99.90
32877;DHT22;19226;51.600;8.034;2023-02-03T00:46:40;8.60;99.90
32877;DHT22;19226;51.600;8.034;2023-02-03T00:49:25;8.60;99.90
32877;DHT22;19226;51.600;8.034;2023-02-03T00:52:10;8.60;99.90
32877;DHT22;19226;51.600;8.034;2023-02-03T00:54:55;8.60;99.90
32877;DHT22;19226;51.600;8.034;2023-02-03T00:57:40;8.70;99.90
32877;DHT22;19226;51.600;8.034;2023-02-03T01:00:25;8.60;99.90
32877;DHT22;19226;51.600;8.034;2023-02-03T01:03:09;8.60;99.90
32877;DHT22;19226;51.600;8.034;2023-02-03T01:05:55;8.60;99.90
32877;DHT22;19226;51.600;8.034;2023-02-03T01:08:40;8.60;99.90
32877;DHT22;19226;51.600;8.034;2023-02-03T01:11:26;8.70;99.90
32877;DHT22;19226;51.600;8.034;2023-02-03T01:14:10;8.70;99.90
32877;DHT22;19226;51.600;8.034;2023-02-03T01:16:55;8.70;99.90
32877;DHT22;19226;51.600;8.034;2023-02-03T01:19:39;8.70;99.90
32877;DHT22;19226;51.600;8.034;2023-02-03T01:22:24;8.70;99.90
32877;DHT22;19226;51.600;8.034;2023-02-03T01:25:09;8.70;99.90
32877;DHT22;19226;51.600;8.034;2023-02-03T01:27:54;8.70;99.90
32877;DHT22;19226;51.600;8.034;2023-02-03T01:30:41;8.70;99.90
32877;DHT22;19226;51.600;8.034;2023-02-03T01:33:25;8.70;99.90
32877;DHT22;19226;51.600;8.034;2023-02-03T01:36:10;8.70;99.90
32877;DHT22;19226;51.600;8.034;2023-02-03T01:38:55;8.70;99.90
32877;DHT22;19226;51.600;8.034;2023-02-03T01:41:40;8.70;99.90
32877;DHT22;19226;51.600;8.034;2023-02-03T01:44:50;8.70;99.90
32877;DHT22;19226;51.600;8.034;2023-02-03T01:50:30;8.70;99.90
32877;DHT22;19226;51.600;8.034;2023-02-03T01:53:16;8.70;99.90
32877;DHT22;19226;51.600;8.034;2023-02-03T01:56:01;8.70;99.90
32877;DHT22;19226;51.600;8.034;2023-02-03T01:58:48;8.70;99.90
32877;DHT22;19226;51.600;8.034;2023-02-03T02:01:34;8.80;99.90
32877;DHT22;19226;51.600;8.034;2023-02-03T02:04:21;8.70;99.90
32877;DHT22;19226;51.600;8.034;2023-02-03T02:07:08;8.70;99.90
32877;DHT22;19226;51.600;8.034;2023-02-03T02:09:54;8.80;99.90
32877;DHT22;19226;51.600;8.034;2023-02-03T02:12:39;8.70;99.90
32877;DHT22;19226;51.600;8.034;2023-02-03T02:22:05;8.80;99.90
32877;DHT22;19226;51.600;8.034;2023-02-03T02:25:02;8.80;99.90
32877;DHT22;19226;51.600;8.034;2023-02-03T02:27:52;8.70;99.90
32877;DHT22;19226;51.600;8.034;2023-02-03T02:33:45;8.80;99.90
32877;DHT22;19226;51.600;8.034;2023-02-03T02:37:03;8.80;99.90
32877;DHT22;19226;51.600;8.034;2023-02-03T02:39:58;8.80;99.90
32877;DHT22;19226;51.600;8.034;2023-02-03T02:43:12;8.70;99.90
32877;DHT22;19226;51.600;8.034;2023-02-03T02:46:10;8.80;99.90
32877;DHT22;19226;51.600;8.034;2023-02-03T02:51:47;8.70;99.90
32877;DHT22;19226;51.600;8.034;2023-02-03T02:54:36;8.80;99.90
32877;DHT22;19226;51.600;8.034;2023-02-03T02:57:24;8.80;99.90
32877;DHT22;19226;51.600;8.034;2023-02-03T03:00:11;8.80;99.90
32877;DHT22;19226;51.600;8.034;2023-02-03T03:02:56;8.80;99.90
32877;DHT22;19226;51.600;8.034;2023-02-03T03:05:43;8.70;99.90
32877;DHT22;19226;51.600;8.034;2023-02-03T03:08:55;8.70;99.90
32877;DHT22;19226;51.600;8.034;2023-02-03T03:11:51;8.80;99.90
32877;DHT22;19226;51.600;8.034;2023-02-03T03:14:40;8.80;99.90
32877;DHT22;19226;51.600;8.034;2023-02-03T03:17:30;8.80;99.90
32877;DHT22;19226;51.600;8.034;2023-02-03T03:20:20;8.80;99.90
32877;DHT22;19226;51.600;8.034;2023-02-03T03:23:08;8.80;99.90
32877;DHT22;19226;51.600;8.034;2023-02-03T03:25:56;8.80;99.90
32877;DHT22;19226;51.600;8.034;2023-02-03T03:28:48;8.80;99.90
32877;DHT22;19226;51.600;8.034;2023-02-03T03:31:34;8.80;99.90
32877;DHT22;19226;51.600;8.034;2023-02-03T03:34:19;8.80;99.90
32877;DHT22;19226;51.600;8.034;2023-02-03T03:39:55;8.80;99.90
32877;DHT22;19226;51.600;8.034;2023-02-03T03:48:30;8.80;99.90
32877;DHT22;19226;51.600;8.034;2023-02-03T03:51:22;8.80;99.90
32877;DHT22;19226;51.600;8.034;2023-02-03T03:54:11;8.80;99.90
32877;DHT22;19226;51.600;8.034;2023-02-03T03:57:06;8.90;99.90
32877;DHT22;19226;51.600;8.034;2023-02-03T03:59:53;8.90;99.90
32877;DHT22;19226;51.600;8.034;2023-02-03T04:02:39;8.90;99.90
32877;DHT22;19226;51.600;8.034;2023-02-03T04:05:25;8.80;99.90
32877;DHT22;19226;51.600;8.034;2023-02-03T04:08:09;8.80;99.90
32877;DHT22;19226;51.600;8.034;2023-02-03T04:10:54;8.80;99.90
32877;DHT22;19226;51.600;8.034;2023-02-03T04:13:38;8.80;99.90
32877;DHT22;19226;51.600;8.034;2023-02-03T04:16:23;8.80;99.90
32877;DHT22;19226;51.600;8.034;2023-02-03T04:19:07;8.80;99.90
32877;DHT22;19226;51.600;8.034;2023-02-03T04:21:52;8.80;99.90
32877;DHT22;19226;51.600;8.034;2023-02-03T04:24:37;8.80;99.90
32877;DHT22;19226;51.600;8.034;2023-02-03T04:27:21;8.90;99.90
32877;DHT22;19226;51.600;8.034;2023-02-03T04:30:06;8.80;99.90
32877;DHT22;19226;51.600;8.034;2023-02-03T04:32:51;8.80;99.90
32877;DHT22;19226;51.600;8.034;2023-02-03T04:35:35;8.80;99.90
32877;DHT22;19226;51.600;8.034;2023-02-03T04:38:21;8.90;99.90
32877;DHT22;19226;51.600;8.034;2023-02-03T04:41:05;8.80;99.90
32877;DHT22;19226;51.600;8.034;2023-02-03T04:43:50;8.80;99.90
32877;DHT22;19226;51.600;8.034;2023-02-03T04:46:34;8.80;99.90
32877;DHT22;19226;51.600;8.034;2023-02-03T04:49:19;8.90;99.90
32877;DHT22;19226;51.600;8.034;2023-02-03T04:52:04;8.80;99.90
32877;DHT22;19226;51.600;8.034;2023-02-03T04:54:48;8.80;99.90
32877;DHT22;19226;51.600;8.034;2023-02-03T04:57:33;8.80;99.90
32877;DHT22;19226;51.600;8.034;2023-02-03T05:00:18;8.90;99.90
32877;DHT22;19226;51.600;8.034;2023-02-03T05:03:03;8.90;99.90
32877;DHT22;19226;51.600;8.034;2023-02-03T05:05:49;8.80;99.90
32877;DHT22;19226;51.600;8.034;2023-02-03T05:08:33;8.80;99.90
32877;DHT22;19226;51.600;8.034;2023-02-03T05:11:17;8.80;99.90
32877;DHT22;19226;51.600;8.034;2023-02-03T05:14:02;8.80;99.90
32877;DHT22;19226;51.600;8.034;2023-02-03T05:16:47;8.90;99.90
32877;DHT22;19226;51.600;8.034;2023-02-03T05:19:32;8.90;99.90
32877;DHT22;19226;51.600;8.034;2023-02-03T05:22:16;8.90;99.90
32877;DHT22;19226;51.600;8.034;2023-02-03T05:25:01;8.90;99.90
32877;DHT22;19226;51.600;8.034;2023-02-03T05:27:46;8.90;99.90
32877;DHT22;19226;51.600;8.034;2023-02-03T05:30:30;8.90;99.90
32877;DHT22;19226;51.600;8.034;2023-02-03T05:33:15;8.90;99.90
32877;DHT22;19226;51.600;8.034;2023-02-03T05:35:59;8.90;99.90
32877;DHT22;19226;51.600;8.034;2023-02-03T05:38:44;8.90;99.90
32877;DHT22;19226;51.600;8.034;2023-02-03T05:41:28;8.90;99.90
32877;DHT22;19226;51.600;8.034;2023-02-03T05:44:31;8.90;99.90
32877;DHT22;19226;51.600;8.034;2023-02-03T05:47:16;8.90;99.90
32877;DHT22;19226;51.600;8.034;2023-02-03T05:50:01;8.90;99.90
32877;DHT22;19226;51.600;8.034;2023-02-03T05:52:45;8.90;99.90
32877;DHT22;19226;51.600;8.034;2023-02-03T05:55:30;8.90;99.90
32877;DHT22;19226;51.600;8.034;2023-02-03T05:58:15;8.90;99.90
32877;DHT22;19226;51.600;8.034;2023-02-03T06:00:59;8.90;99.90
32877;DHT22;19226;51.600;8.034;2023-02-03T06:03:44;8.90;99.90
32877;DHT22;19226;51.600;8.034;2023-02-03T06:06:29;8.90;99.90
32877;DHT22;19226;51.600;8.034;2023-02-03T06:09:17;8.90;99.90
32877;DHT22;19226;51.600;8.034;2023-02-03T06:12:01;8.90;99.90
32877;DHT22;19226;51.600;8.034;2023-02-03T06:14:46;8.90;99.90
32877;DHT22;19226;51.600;8.034;2023-02-03T06:17:30;8.90;99.90
32877;DHT22;19226;51.600;8.034;2023-02-03T06:20:17;8.90;99.90
32877;DHT22;19226;51.600;8.034;2023-02-03T06:23:02;9.00;99.90
32877;DHT22;19226;51.600;8.034;2023-02-03T06:25:48;9.00;99.90
32877;DHT22;19226;51.600;8.034;2023-02-03T06:28:32;8.90;99.90
32877;DHT22;19226;51.600;8.034;2023-02-03T06:31:17;9.00;99.90
32877;DHT22;19226;51.600;8.034;2023-02-03T06:34:01;8.90;99.90
32877;DHT22;19226;51.600;8.034;2023-02-03T06:36:46;9.00;99.90
32877;DHT22;19226;51.600;8.034;2023-02-03T06:39:32;9.00;99.90
32877;DHT22;19226;51.600;8.034;2023-02-03T06:42:16;9.00;99.90
32877;DHT22;19226;51.600;8.034;2023-02-03T06:45:02;9.00;99.90
32877;DHT22;19226;51.600;8.034;2023-02-03T06:47:46;9.00;99.90
32877;DHT22;19226;51.600;8.034;2023-02-03T06:50:31;9.00;99.90
32877;DHT22;19226;51.600;8.034;2023-02-03T06:53:15;9.00;99.90
32877;DHT22;19226;51.600;8.034;2023-02-03T06:56:00;9.00;99.90
32877;DHT22;19226;51.600;8.034;2023-02-03T06:58:45;9.00;99.90
32877;DHT22;19226;51.600;8.034;2023-02-03T07:01:30;8.90;99.90
32877;DHT22;19226;51.600;8.034;2023-02-03T07:04:14;8.90;99.90
32877;DHT22;19226;51.600;8.034;2023-02-03T07:06:59;8.90;99.90
32877;DHT22;19226;51.600;8.034;2023-02-03T07:09:43;8.90;99.90
32877;DHT22;19226;51.600;8.034;2023-02-03T07:12:28;8.90;99.90
32877;DHT22;19226;51.600;8.034;2023-02-03T07:15:12;8.90;99.90
32877;DHT22;19226;51.600;8.034;2023-02-03T07:17:57;8.80;99.90
32877;DHT22;19226;51.600;8.034;2023-02-03T07:20:42;8.90;99.90
32877;DHT22;19226;51.600;8.034;2023-02-03T07:23:26;8.80;99.90
32877;DHT22;19226;51.600;8.034;2023-02-03T07:26:13;8.90;99.90
32877;DHT22;19226;51.600;8.034;2023-02-03T07:28:58;8.80;99.90
32877;DHT22;19226;51.600;8.034;2023-02-03T07:31:43;8.80;99.90
32877;DHT22;19226;51.600;8.034;2023-02-03T07:34:28;8.80;99.90
32877;DHT22;19226;51.600;8.034;2023-02-03T07:37:12;8.80;99.90
32877;DHT22;19226;51.600;8.034;2023-02-03T07:39:57;8.70;99.90
32877;DHT22;19226;51.600;8.034;2023-02-03T07:42:46;8.70;99.90
32877;DHT22;19226;51.600;8.034;2023-02-03T07:45:31;8.70;99.90
32877;DHT22;19226;51.600;8.034;2023-02-03T07:48:16;8.70;99.90
32877;DHT22;19226;51.600;8.034;2023-02-03T07:51:00;8.70;99.90
32877;DHT22;19226;51.600;8.034;2023-02-03T07:53:45;8.70;99.90
32877;DHT22;19226;51.600;8.034;2023-02-03T07:56:29;8.70;99.90
32877;DHT22;19226;51.600;8.034;2023-02-03T07:59:16;8.70;99.90
32877;DHT22;19226;51.600;8.034;2023-02-03T08:02:00;8.70;99.90
32877;DHT22;19226;51.600;8.034;2023-02-03T08:04:45;8.70;99.90
32877;DHT22;19226;51.600;8.034;2023-02-03T08:07:29;8.70;99.90
32877;DHT22;19226;51.600;8.034;2023-02-03T08:10:14;8.70;99.90
32877;DHT22;19226;51.600;8.034;2023-02-03T08:13:00;8.70;99.90
32877;DHT22;19226;51.600;8.034;2023-02-03T08:15:44;8.80;99.90
32877;DHT22;19226;51.600;8.034;2023-02-03T08:18:29;8.80;99.90
32877;DHT22;19226;51.600;8.034;2023-02-03T08:21:13;8.80;99.90
32877;DHT22;19226;51.600;8.034;2023-02-03T08:23:58;8.80;99.90
32877;DHT22;19226;51.600;8.034;2023-02-03T08:26:43;8.80;99.90
32877;DHT22;19226;51.600;8.034;2023-02-03T08:29:27;8.80;99.90
32877;DHT22;19226;51.600;8.034;2023-02-03T08:32:19;8.80;99.90
32877;DHT22;19226;51.600;8.034;2023-02-03T08:35:05;8.80;99.90
32877;DHT22;19226;51.600;8.034;2023-02-03T08:37:50;8.80;99.90
32877;DHT22;19226;51.600;8.034;2023-02-03T08:40:34;8.80;99.90
32877;DHT22;19226;51.600;8.034;2023-02-03T08:43:19;8.80;99.90
32877;DHT22;19226;51.600;8.034;2023-02-03T08:46:05;8.80;99.90
32877;DHT22;19226;51.600;8.034;2023-02-03T08:48:50;8.80;99.90
32877;DHT22;19226;51.600;8.034;2023-02-03T08:51:36;8.80;99.90
32877;DHT22;19226;51.600;8.034;2023-02-03T08:54:21;8.80;99.90
32877;DHT22;19226;51.600;8.034;2023-02-03T08:57:06;8.80;99.90
32877;DHT22;19226;51.600;8.034;2023-02-03T08:59:50;8.70;99.90
32877;DHT22;19226;51.600;8.034;2023-02-03T09:02:35;8.70;99.90
32877;DHT22;19226;51.600;8.034;2023-02-03T09:05:19;8.70;99.90
32877;DHT22;19226;51.600;8.034;2023-02-03T09:08:04;8.80;99.90
32877;DHT22;19226;51.600;8.034;2023-02-03T09:10:48;8.70;99.90
32877;DHT22;19226;51.600;8.034;2023-02-03T09:13:33;8.80;99.90
32877;DHT22;19226;51.600;8.034;2023-02-03T09:16:19;8.80;99.90
32877;DHT22;19226;51.600;8.034;2023-02-03T09:19:06;8.80;99.90
32877;DHT22;19226;51.600;8.034;2023-02-03T09:21:50;8.80;99.90
32877;DHT22;19226;51.600;8.034;2023-02-03T09:24:35;8.90;99.90
32877;DHT22;19226;51.600;8.034;2023-02-03T09:27:20;8.90;99.90
32877;DHT22;19226;51.600;8.034;2023-02-03T09:30:05;8.90;99.90
32877;DHT22;19226;51.600;8.034;2023-02-03T09:32:52;8.90;99.90
32877;DHT22;19226;51.600;8.034;2023-02-03T09:35:37;8.90;99.90
32877;DHT22;19226;51.600;8.034;2023-02-03T09:38:22;8.90;99.90
32877;DHT22;19226;51.600;8.034;2023-02-03T09:47:00;8.90;99.90
32877;DHT22;19226;51.600;8.034;2023-02-03T09:49:49;8.90;99.90
32877;DHT22;19226;51.600;8.034;2023-02-03T09:52:38;8.90;99.90
32877;DHT22;19226;51.600;8.034;2023-02-03T09:55:33;9.00;99.90
32877;DHT22;19226;51.600;8.034;2023-02-03T09:58:20;9.00;99.90
32877;DHT22;19226;51.600;8.034;2023-02-03T10:01:10;9.00;99.90
32877;DHT22;19226;51.600;8.034;2023-02-03T10:13:33;9.00;99.90
32877;DHT22;19226;51.600;8.034;2023-02-03T10:19:22;9.10;99.90
32877;DHT22;19226;51.600;8.034;2023-02-03T10:22:14;9.10;99.90
32877;DHT22;19226;51.600;8.034;2023-02-03T10:28:01;9.10;99.90
32877;DHT22;19226;51.600;8.034;2023-02-03T10:30:55;9.10;99.90
32877;DHT22;19226;51.600;8.034;2023-02-03T10:33:40;9.20;99.90
32877;DHT22;19226;51.600;8.034;2023-02-03T10:36:39;9.20;99.90
32877;DHT22;19226;51.600;8.034;2023-02-03T10:39:49;9.20;99.90
32877;DHT22;19226;51.600;8.034;2023-02-03T10:42:34;9.20;99.90
32877;DHT22;19226;51.600;8.034;2023-02-03T10:45:38;9.20;99.90
32877;DHT22;19226;51.600;8.034;2023-02-03T10:48:24;9.20;99.90
32877;DHT22;19226;51.600;8.034;2023-02-03T10:54:01;9.30;99.90
32877;DHT22;19226;51.600;8.034;2023-02-03T10:56:46;9.30;99.90
32877;DHT22;19226;51.600;8.034;2023-02-03T10:59:34;9.30;99.90
32877;DHT22;19226;51.600;8.034;2023-02-03T11:02:24;9.30;99.90
32877;DHT22;19226;51.600;8.034;2023-02-03T11:08:01;9.30;99.90
32877;DHT22;19226;51.600;8.034;2023-02-03T11:10:45;9.40;99.90
32877;DHT22;19226;51.600;8.034;2023-02-03T11:13:30;9.40;99.90
32877;DHT22;19226;51.600;8.034;2023-02-03T11:16:17;9.40;99.90
32877;DHT22;19226;51.600;8.034;2023-02-03T11:19:05;9.40;99.90
32877;DHT22;19226;51.600;8.034;2023-02-03T11:21:53;9.40;99.90
32877;DHT22;19226;51.600;8.034;2023-02-03T11:24:41;9.50;99.90
32877;DHT22;19226;51.600;8.034;2023-02-03T11:27:28;9.50;99.90
32877;DHT22;19226;51.600;8.034;2023-02-03T11:33:00;9.50;99.90
32877;DHT22;19226;51.600;8.034;2023-02-03T11:35:58;9.50;99.90
32877;DHT22;19226;51.600;8.034;2023-02-03T11:38:43;9.50;99.90
32877;DHT22;19226;51.600;8.034;2023-02-03T11:41:38;9.50;99.90
32877;DHT22;19226;51.600;8.034;2023-02-03T11:44:28;9.50;99.90
32877;DHT22;19226;51.600;8.034;2023-02-03T11:47:14;9.40;99.90
32877;DHT22;19226;51.600;8.034;2023-02-03T11:56:57;9.40;99.90
32877;DHT22;19226;51.600;8.034;2023-02-03T12:17:36;9.50;99.90
32877;DHT22;19226;51.600;8.034;2023-02-03T12:24:18;9.50;99.90
32877;DHT22;19226;51.600;8.034;2023-02-03T12:30:13;9.50;99.90
32877;DHT22;19226;51.600;8.034;2023-02-03T12:33:05;9.50;99.90
32877;DHT22;19226;51.600;8.034;2023-02-03T12:36:04;9.50;99.90
32877;DHT22;19226;51.600;8.034;2023-02-03T12:39:04;9.40;99.90
32877;DHT22;19226;51.600;8.034;2023-02-03T12:42:00;9.40;99.90
32877;DHT22;19226;51.600;8.034;2023-02-03T12:45:07;9.40;99.90
32877;DHT22;19226;51.600;8.034;2023-02-03T12:48:02;9.40;99.90
32877;DHT22;19226;51.600;8.034;2023-02-03T12:50:50;9.40;99.90
32877;DHT22;19226;51.600;8.034;2023-02-03T12:53:38;9.40;99.90
32877;DHT22;19226;51.600;8.034;2023-02-03T12:56:29;9.40;99.90
32877;DHT22;19226;51.600;8.034;2023-02-03T12:59:19;9.30;99.90
32877;DHT22;19226;51.600;8.034;2023-02-03T13:02:12;9.30;99.90
32877;DHT22;19226;51.600;8.034;2023-02-03T13:05:04;9.30;99.90
32877;DHT22;19226;51.600;8.034;2023-02-03T13:07:58;9.30;99.90
32877;DHT22;19226;51.600;8.034;2023-02-03T13:10:55;9.30;99.90
32877;DHT22;19226;51.600;8.034;2023-02-03T13:13:47;9.30;99.90
32877;DHT22;19226;51.600;8.034;2023-02-03T13:16:36;9.30;99.90
32877;DHT22;19226;51.600;8.034;2023-02-03T13:19:26;9.30;99.90
32877;DHT22;19226;51.600;8.034;2023-02-03T13:22:13;9.20;99.90
32877;DHT22;19226;51.600;8.034;2023-02-03T13:25:14;9.30;99.90
32877;DHT22;19226;51.600;8.034;2023-02-03T13:28:17;9.30;99.90
32877;DHT22;19226;51.600;8.034;2023-02-03T13:34:35;9.20;99.90
32877;DHT22;19226;51.600;8.034;2023-02-03T13:43:54;9.20;99.90
32877;DHT22;19226;51.600;8.034;2023-02-03T13:46:41;9.20;99.90
32877;DHT22;19226;51.600;8.034;2023-02-03T13:49:33;9.20;99.90
32877;DHT22;19226;51.600;8.034;2023-02-03T13:52:28;9.10;99.90
32877;DHT22;19226;51.600;8.034;2023-02-03T13:55:37;9.10;99.90
32877;DHT22;19226;51.600;8.034;2023-02-03T13:58:26;9.20;99.90
32877;DHT22;19226;51.600;8.034;2023-02-03T14:01:36;9.10;99.90
32877;DHT22;19226;51.600;8.034;2023-02-03T14:07:32;9.10;99.90
32877;DHT22;19226;51.600;8.034;2023-02-03T14:10:23;9.10;99.90
32877;DHT22;19226;51.600;8.034;2023-02-03T14:13:19;9.10;99.90
32877;DHT22;19226;51.600;8.034;2023-02-03T14:16:22;9.10;99.90
32877;DHT22;19226;51.600;8.034;2023-02-03T14:22:17;9.10;99.90
32877;DHT22;19226;51.600;8.034;2023-02-03T14:25:04;9.00;99.90
32877;DHT22;19226;51.600;8.034;2023-02-03T14:28:15;9.10;99.90
32877;DHT22;19226;51.600;8.034;2023-02-03T14:31:20;9.10;99.90
32877;DHT22;19226;51.600;8.034;2023-02-03T14:34:07;9.00;99.90
32877;DHT22;19226;51.600;8.034;2023-02-03T14:36:56;9.00;99.90
32877;DHT22;19226;51.600;8.034;2023-02-03T14:55:34;9.10;99.90
32877;DHT22;19226;51.600;8.034;2023-02-03T14:58:29;9.00;99.90
32877;DHT22;19226;51.600;8.034;2023-02-03T15:04:20;9.00;99.90
32877;DHT22;19226;51.600;8.034;2023-02-03T15:07:05;9.00;99.90
32877;DHT22;19226;51.600;8.034;2023-02-03T15:09:51;9.00;99.90
32877;DHT22;19226;51.600;8.034;2023-02-03T15:12:36;9.00;99.90
32877;DHT22;19226;51.600;8.034;2023-02-03T15:18:29;9.00;99.90
32877;DHT22;19226;51.600;8.034;2023-02-03T15:21:18;9.00;99.90
32877;DHT22;19226;51.600;8.034;2023-02-03T15:24:16;9.00;99.90
32877;DHT22;19226;51.600;8.034;2023-02-03T15:27:22;9.00;99.90
32877;DHT22;19226;51.600;8.034;2023-02-03T15:33:13;9.00;99.90
32877;DHT22;19226;51.600;8.034;2023-02-03T15:36:11;8.90;99.90
32877;DHT22;19226;51.600;8.034;2023-02-03T15:39:13;8.90;99.90
32877;DHT22;19226;51.600;8.034;2023-02-03T15:42:02;8.90;99.90
32877;DHT22;19226;51.600;8.034;2023-02-03T15:48:05;8.90;99.90
32877;DHT22;19226;51.600;8.034;2023-02-03T15:54:01;8.90;99.90
32877;DHT22;19226;51.600;8.034;2023-02-03T15:56:50;8.80;99.90
32877;DHT22;19226;51.600;8.034;2023-02-03T15:59:41;8.80;99.90
32877;DHT22;19226;51.600;8.034;2023-02-03T16:02:35;8.80;99.90
32877;DHT22;19226;51.600;8.034;2023-02-03T16:05:25;8.80;99.90
32877;DHT22;19226;51.600;8.034;2023-02-03T16:08:32;8.80;99.90
32877;DHT22;19226;51.600;8.034;2023-02-03T16:11:36;8.80;99.90
32877;DHT22;19226;51.600;8.034;2023-02-03T16:14:32;8.80;99.90
32877;DHT22;19226;51.600;8.034;2023-02-03T16:17:23;8.80;99.90
32877;DHT22;19226;51.600;8.034;2023-02-03T16:23:17;8.70;99.90
32877;DHT22;19226;51.600;8.034;2023-02-03T16:32:17;8.60;99.90
32877;DHT22;19226;51.600;8.034;2023-02-03T16:35:21;8.60;99.90
32877;DHT22;19226;51.600;8.034;2023-02-03T16:38:24;8.60;99.90
32877;DHT22;19226;51.600;8.034;2023-02-03T16:41:27;8.60;99.90
32877;DHT22;19226;51.600;8.034;2023-02-03T16:44:30;8.60;99.90
32877;DHT22;19226;51.600;8.034;2023-02-03T16:47:33;8.60;99.90
32877;DHT22;19226;51.600;8.034;2023-02-03T16:50:36;8.60;99.90
32877;DHT22;19226;51.600;8.034;2023-02-03T16:53:39;8.60;99.90
32877;DHT22;19226;51.600;8.034;2023-02-03T16:56:24;8.60;99.90
32877;DHT22;19226;51.600;8.034;2023-02-03T16:59:08;8.50;99.90
32877;DHT22;19226;51.600;8.034;2023-02-03T17:01:53;8.50;99.90
32877;DHT22;19226;51.600;8.034;2023-02-03T17:04:38;8.50;99.90
32877;DHT22;19226;51.600;8.034;2023-02-03T17:07:23;8.50;99.90
32877;DHT22;19226;51.600;8.034;2023-02-03T17:10:08;8.50;99.90
32877;DHT22;19226;51.600;8.034;2023-02-03T17:12:53;8.50;99.90
32877;DHT22;19226;51.600;8.034;2023-02-03T17:15:49;8.50;99.90
32877;DHT22;19226;51.600;8.034;2023-02-03T17:18:36;8.50;99.90
32877;DHT22;19226;51.600;8.034;2023-02-03T17:21:26;8.50;99.90
32877;DHT22;19226;51.600;8.034;2023-02-03T17:24:11;8.50;99.90
32877;DHT22;19226;51.600;8.034;2023-02-03T17:26:55;8.40;99.90
32877;DHT22;19226;51.600;8.034;2023-02-03T17:29:41;8.40;99.90
32877;DHT22;19226;51.600;8.034;2023-02-03T17:32:25;8.40;99.90
32877;DHT22;19226;51.600;8.034;2023-02-03T17:35:10;8.40;99.90
32877;DHT22;19226;51.600;8.034;2023-02-03T17:37:54;8.40;99.90
32877;DHT22;19226;51.600;8.034;2023-02-03T17:40:42;8.30;99.90
32877;DHT22;19226;51.600;8.034;2023-02-03T17:43:28;8.40;99.90
32877;DHT22;19226;51.600;8.034;2023-02-03T17:46:18;8.40;99.90
32877;DHT22;19226;51.600;8.034;2023-02-03T17:49:03;8.30;99.90
32877;DHT22;19226;51.600;8.034;2023-02-03T17:51:47;8.30;99.90
32877;DHT22;19226;51.600;8.034;2023-02-03T17:54:32;8.30;99.90
32877;DHT22;19226;51.600;8.034;2023-02-03T17:57:16;8.20;99.90
32877;DHT22;19226;51.600;8.034;2023-02-03T18:00:03;8.20;99.90
32877;DHT22;19226;51.600;8.034;2023-02-03T18:02:56;8.20;99.90
32877;DHT22;19226;51.600;8.034;2023-02-03T18:05:51;8.20;99.90
32877;DHT22;19226;51.600;8.034;2023-02-03T18:08:36;8.20;99.90
32877;DHT22;19226;51.600;8.034;2023-02-03T18:11:21;8.20;99.90
32877;DHT22;19226;51.600;8.034;2023-02-03T18:14:05;8.10;99.90
32877;DHT22;19226;51.600;8.034;2023-02-03T18:16:50;8.10;99.90
32877;DHT22;19226;51.600;8.034;2023-02-03T18:19:35;8.10;99.90
32877;DHT22;19226;51.600;8.034;2023-02-03T18:22:19;8.10;99.90
32877;DHT22;19226;51.600;8.034;2023-02-03T18:25:04;8.10;99.90
32877;DHT22;19226;51.600;8.034;2023-02-03T18:27:50;8.10;99.90
32877;DHT22;19226;51.600;8.034;2023-02-03T18:30:35;8.10;99.90
32877;DHT22;19226;51.600;8.034;2023-02-03T18:33:19;8.10;99.90
32877;DHT22;19226;51.600;8.034;2023-02-03T18:36:04;8.10;99.90
32877;DHT22;19226;51.600;8.034;2023-02-03T18:38:49;8.10;99.90
32877;DHT22;19226;51.600;8.034;2023-02-03T18:41:34;8.10;99.90
32877;DHT22;19226;51.600;8.034;2023-02-03T18:44:20;8.10;99.90
32877;DHT22;19226;51.600;8.034;2023-02-03T18:47:05;8.10;99.90
32877;DHT22;19226;51.600;8.034;2023-02-03T18:49:50;8.10;99.90
32877;DHT22;19226;51.600;8.034;2023-02-03T18:52:36;8.10;99.90
32877;DHT22;19226;51.600;8.034;2023-02-03T18:55:23;8.10;99.90
32877;DHT22;19226;51.600;8.034;2023-02-03T18:58:08;8.00;99.90
32877;DHT22;19226;51.600;8.034;2023-02-03T19:00:53;8.00;99.90
32877;DHT22;19226;51.600;8.034;2023-02-03T19:03:39;8.00;99.90
32877;DHT22;19226;51.600;8.034;2023-02-03T19:06:24;8.00;99.90
32877;DHT22;19226;51.600;8.034;2023-02-03T19:09:08;8.10;99.90
32877;DHT22;19226;51.600;8.034;2023-02-03T19:11:54;8.00;99.90
32877;DHT22;19226;51.600;8.034;2023-02-03T19:14:42;8.00;99.90
32877;DHT22;19226;51.600;8.034;2023-02-03T19:17:26;8.00;99.90
32877;DHT22;19226;51.600;8.034;2023-02-03T19:20:11;8.10;99.90
32877;DHT22;19226;51.600;8.034;2023-02-03T19:22:56;8.00;99.90
32877;DHT22;19226;51.600;8.034;2023-02-03T19:25:41;8.00;99.90
32877;DHT22;19226;51.600;8.034;2023-02-03T19:28:25;8.00;99.90
32877;DHT22;19226;51.600;8.034;2023-02-03T19:31:12;8.00;99.90
32877;DHT22;19226;51.600;8.034;2023-02-03T19:33:58;8.00;99.90
32877;DHT22;19226;51.600;8.034;2023-02-03T19:36:45;8.00;99.90
32877;DHT22;19226;51.600;8.034;2023-02-03T19:39:32;8.00;99.90
32877;DHT22;19226;51.600;8.034;2023-02-03T19:42:17;8.00;99.90
32877;DHT22;19226;51.600;8.034;2023-02-03T19:45:02;8.00;99.90
32877;DHT22;19226;51.600;8.034;2023-02-03T19:47:48;8.00;99.90
32877;DHT22;19226;51.600;8.034;2023-02-03T19:50:33;8.00;99.90
32877;DHT22;19226;51.600;8.034;2023-02-03T19:53:20;8.00;99.90
32877;DHT22;19226;51.600;8.034;2023-02-03T19:56:04;8.00;99.90
32877;DHT22;19226;51.600;8.034;2023-02-03T19:58:49;8.00;99.90
32877;DHT22;19226;51.600;8.034;2023-02-03T20:01:37;7.90;99.90
32877;DHT22;19226;51.600;8.034;2023-02-03T20:04:21;7.90;99.90
32877;DHT22;19226;51.600;8.034;2023-02-03T20:07:06;7.90;99.90
32877;DHT22;19226;51.600;8.034;2023-02-03T20:09:50;7.90;99.90
32877;DHT22;19226;51.600;8.034;2023-02-03T20:12:35;7.90;99.90
32877;DHT22;19226;51.600;8.034;2023-02-03T20:15:20;7.90;99.90
32877;DHT22;19226;51.600;8.034;2023-02-03T20:18:05;7.90;99.90